createdAt,value
2023-05-16T00:00:42.682Z,9.67
2023-05-16T00:03:12.077Z,9.27
2023-05-16T00:05:39.137Z,9.30
2023-05-16T00:08:06.296Z,9.10
2023-05-16T00:10:34.248Z,8.67
2023-05-16T00:13:01.824Z,8.50
2023-05-16T00:15:30.052Z,8.30
2023-05-16T00:18:00.291Z,7.90
2023-05-16T00:20:28.705Z,7.93
2023-05-16T00:22:56.093Z,9.47
2023-05-16T00:25:23.691Z,9.10
2023-05-16T00:27:50.697Z,8.83
2023-05-16T00:30:17.784Z,8.70
2023-05-16T00:32:44.862Z,9.53
2023-05-16T00:35:12.301Z,9.10
2023-05-16T00:37:39.648Z,9.03
2023-05-16T00:40:08.086Z,8.33
2023-05-16T00:42:34.984Z,9.73
2023-05-16T00:45:01.869Z,8.93
2023-05-16T00:47:28.836Z,8.80
2023-05-16T00:49:56.589Z,9.70
2023-05-16T00:52:24.741Z,9.83
2023-05-16T00:54:52.481Z,9.37
2023-05-16T00:57:20.222Z,8.50
2023-05-16T00:59:47.845Z,9.00
2023-05-16T01:02:15.486Z,10.47
2023-05-16T01:04:43.694Z,8.80
2023-05-16T01:07:10.834Z,9.20
2023-05-16T01:09:38.356Z,9.63
2023-05-16T01:12:21.606Z,10.67
2023-05-16T01:15:15.397Z,9.17
2023-05-16T01:18:14.299Z,9.53
2023-05-16T01:21:00.424Z,9.70
2023-05-16T01:24:19.858Z,10.70
2023-05-16T01:26:49.500Z,9.47
2023-05-16T01:29:16.971Z,15.80
2023-05-16T01:31:43.945Z,10.73
2023-05-16T01:34:10.881Z,9.80
2023-05-16T01:37:19.583Z,9.70
2023-05-16T01:40:07.584Z,11.53
2023-05-16T01:42:44.893Z,10.27
2023-05-16T01:45:32.782Z,12.57
2023-05-16T01:48:20.533Z,8.30
2023-05-16T01:50:57.679Z,8.80
2023-05-16T01:53:39.155Z,9.57
2023-05-16T01:56:16.576Z,9.33
2023-05-16T01:58:47.019Z,9.97
2023-05-16T02:01:14.152Z,11.97
2023-05-16T02:03:41.385Z,9.90
2023-05-16T02:06:08.383Z,9.83
2023-05-16T02:08:35.303Z,12.47
2023-05-16T02:11:02.218Z,11.30
2023-05-16T02:13:29.184Z,9.27
2023-05-16T02:15:56.074Z,11.17
2023-05-16T02:18:23.587Z,12.00
2023-05-16T02:20:51.888Z,11.37
2023-05-16T02:23:18.839Z,10.57
2023-05-16T02:25:45.834Z,11.73
2023-05-16T02:28:12.785Z,11.70
2023-05-16T02:30:39.693Z,10.43
2023-05-16T02:33:06.696Z,11.23
2023-05-16T02:35:33.756Z,20.90
2023-05-16T02:38:00.674Z,9.87
2023-05-16T02:40:27.717Z,10.27
2023-05-16T02:42:54.737Z,11.37
2023-05-16T02:45:21.707Z,11.30
2023-05-16T02:47:48.754Z,11.00
2023-05-16T02:50:15.664Z,13.03
2023-05-16T02:52:42.534Z,13.80
2023-05-16T02:55:21.604Z,13.60
2023-05-16T02:57:50.944Z,12.13
2023-05-16T03:00:19.644Z,11.87
2023-05-16T03:02:46.814Z,12.97
2023-05-16T03:05:13.924Z,13.30
2023-05-16T03:07:41.153Z,14.40
2023-05-16T03:10:08.961Z,14.03
2023-05-16T03:12:36.015Z,15.43
2023-05-16T03:15:04.022Z,13.43
2023-05-16T03:17:31.000Z,14.50
2023-05-16T03:19:57.917Z,19.43
2023-05-16T03:22:24.805Z,14.10
2023-05-16T03:24:51.737Z,13.60
2023-05-16T03:27:18.688Z,14.47
2023-05-16T03:29:45.614Z,14.30
2023-05-16T03:32:12.619Z,14.20
2023-05-16T03:34:39.554Z,14.97
2023-05-16T03:37:06.778Z,15.60
2023-05-16T03:39:33.679Z,17.00
2023-05-16T03:42:00.598Z,15.63
2023-05-16T03:44:27.524Z,16.17
2023-05-16T03:46:55.861Z,15.53
2023-05-16T03:49:28.404Z,12.57
2023-05-16T03:51:55.540Z,14.27
2023-05-16T03:54:22.895Z,13.33
2023-05-16T03:56:49.811Z,13.17
2023-05-16T03:59:16.770Z,13.20
2023-05-16T04:01:43.756Z,12.63
2023-05-16T04:04:10.699Z,12.80
2023-05-16T04:06:37.642Z,13.73
2023-05-16T04:09:04.594Z,12.50
2023-05-16T04:11:32.342Z,13.30
2023-05-16T04:13:59.689Z,14.33
2023-05-16T04:16:26.713Z,13.83
2023-05-16T04:18:53.775Z,13.73
2023-05-16T04:21:20.655Z,14.20
2023-05-16T04:23:47.620Z,17.20
2023-05-16T04:26:14.510Z,13.40
2023-05-16T04:28:41.527Z,13.90
2023-05-16T04:33:35.518Z,13.93
2023-05-16T04:36:03.798Z,13.17
2023-05-16T04:38:31.177Z,14.57
2023-05-16T04:40:58.461Z,12.73
2023-05-16T04:43:26.742Z,13.27
2023-05-16T04:45:54.265Z,14.00
2023-05-16T04:48:21.339Z,15.73
2023-05-16T04:50:48.184Z,15.10
2023-05-16T04:53:15.235Z,16.00
2023-05-16T04:55:42.346Z,15.07
2023-05-16T04:58:09.271Z,14.63
2023-05-16T05:00:37.346Z,15.20
2023-05-16T05:03:04.545Z,14.20
2023-05-16T05:05:32.215Z,14.90
2023-05-16T05:08:00.672Z,16.70
2023-05-16T05:10:27.804Z,16.53
2023-05-16T05:12:54.723Z,15.07
2023-05-16T05:15:21.595Z,16.50
2023-05-16T05:17:48.647Z,14.40
2023-05-16T05:20:15.745Z,15.13
2023-05-16T05:22:42.605Z,15.63
2023-05-16T05:25:09.999Z,15.03
2023-05-16T05:27:36.956Z,16.33
2023-05-16T05:30:04.773Z,16.33
2023-05-16T05:32:31.974Z,13.30
2023-05-16T05:34:58.931Z,14.53
2023-05-16T05:37:27.036Z,14.20
2023-05-16T05:39:53.970Z,14.87
2023-05-16T05:42:21.077Z,13.10
2023-05-16T05:44:47.999Z,19.53
2023-05-16T05:47:15.663Z,12.23
2023-05-16T05:49:43.308Z,12.90
2023-05-16T05:52:10.573Z,12.40
2023-05-16T05:54:37.472Z,14.17
2023-05-16T05:57:04.493Z,12.43
2023-05-16T05:59:31.353Z,11.97
2023-05-16T06:01:58.780Z,12.37
2023-05-16T06:04:25.749Z,13.90
2023-05-16T06:06:52.608Z,12.60
2023-05-16T06:09:22.138Z,12.40
2023-05-16T06:11:50.110Z,11.40
2023-05-16T06:14:17.082Z,10.37
2023-05-16T06:16:44.394Z,13.47
2023-05-16T06:19:15.736Z,11.77
2023-05-16T06:21:43.913Z,10.83
2023-05-16T06:24:12.325Z,11.23
2023-05-16T06:26:39.229Z,9.73
2023-05-16T06:29:06.124Z,10.57
2023-05-16T06:31:33.182Z,10.43
2023-05-16T06:34:00.125Z,9.33
2023-05-16T06:36:27.291Z,10.00
2023-05-16T06:38:54.133Z,10.43
2023-05-16T06:41:21.645Z,11.20
2023-05-16T06:43:49.261Z,9.93
2023-05-16T06:46:16.188Z,10.60
2023-05-16T06:48:43.241Z,18.50
2023-05-16T06:51:10.296Z,10.00
2023-05-16T06:53:37.320Z,9.80
2023-05-16T06:56:04.837Z,9.70
2023-05-16T06:58:31.784Z,10.20
2023-05-16T07:00:58.796Z,9.87
2023-05-16T07:03:26.159Z,9.83
2023-05-16T07:05:53.190Z,9.17
2023-05-16T07:08:20.088Z,10.07
2023-05-16T07:10:46.998Z,9.10
2023-05-16T07:13:14.076Z,8.90
2023-05-16T07:15:41.345Z,10.17
2023-05-16T07:18:08.460Z,9.00
2023-05-16T07:20:36.171Z,9.53
2023-05-16T07:23:03.126Z,11.50
2023-05-16T07:25:30.453Z,10.13
2023-05-16T07:27:57.519Z,9.07
2023-05-16T07:30:24.637Z,11.07
2023-05-16T07:32:51.697Z,14.43
2023-05-16T07:35:18.847Z,9.47
2023-05-16T07:37:46.130Z,9.00
2023-05-16T07:40:14.436Z,9.03
2023-05-16T07:42:41.504Z,12.03
2023-05-16T07:45:09.075Z,9.53
2023-05-16T07:47:36.317Z,9.20
2023-05-16T07:50:03.532Z,9.80
2023-05-16T07:52:30.577Z,8.33
2023-05-16T07:54:58.239Z,10.00
2023-05-16T07:57:25.495Z,8.47
2023-05-16T07:59:53.099Z,8.13
2023-05-16T08:03:41.247Z,8.20
2023-05-16T08:06:08.418Z,9.13
2023-05-16T08:08:35.494Z,7.80
2023-05-16T08:11:02.485Z,8.17
2023-05-16T08:13:29.396Z,8.17
2023-05-16T08:15:56.402Z,7.70
2023-05-16T08:18:23.465Z,8.10
2023-05-16T08:20:51.165Z,7.67
2023-05-16T08:23:18.761Z,7.70
2023-05-16T08:25:45.776Z,8.43
2023-05-16T08:28:13.006Z,8.80
2023-05-16T08:30:42.693Z,7.83
2023-05-16T08:33:10.283Z,8.57
2023-05-16T08:35:37.512Z,8.67
2023-05-16T08:38:04.790Z,8.73
2023-05-16T08:40:31.998Z,8.13
2023-05-16T08:42:59.297Z,18.87
2023-05-16T08:45:26.929Z,8.77
2023-05-16T08:48:01.672Z,7.77
2023-05-16T08:50:32.988Z,8.50
2023-05-16T08:53:08.040Z,10.30
2023-05-16T08:55:37.755Z,11.77
2023-05-16T08:58:05.234Z,6.63
2023-05-16T09:00:32.420Z,8.47
2023-05-16T09:03:00.201Z,8.10
2023-05-16T09:05:30.776Z,9.37
2023-05-16T09:07:58.029Z,11.40
2023-05-16T09:10:25.052Z,7.20
2023-05-16T09:12:51.965Z,8.00
2023-05-16T09:15:21.525Z,8.40
2023-05-16T09:17:49.121Z,8.57
2023-05-16T09:20:21.111Z,8.43
2023-05-16T09:23:06.205Z,8.97
2023-05-16T09:25:33.192Z,8.60
2023-05-16T09:28:02.798Z,7.77
2023-05-16T09:30:34.294Z,7.57
2023-05-16T09:33:02.783Z,7.80
2023-05-16T09:35:44.004Z,12.60
2023-05-16T09:38:17.728Z,7.47
2023-05-16T09:40:46.360Z,6.80
2023-05-16T09:43:17.614Z,8.13
2023-05-16T09:45:49.472Z,7.23
2023-05-16T09:48:17.976Z,8.03
2023-05-16T09:50:54.591Z,7.10
2023-05-16T09:53:32.243Z,8.10
2023-05-16T09:56:10.812Z,7.63
2023-05-16T09:58:41.689Z,8.67
2023-05-16T10:01:10.938Z,7.17
2023-05-16T10:03:42.243Z,7.03
2023-05-16T10:06:12.861Z,7.13
2023-05-16T10:08:43.581Z,7.73
2023-05-16T10:11:11.721Z,8.10
2023-05-16T10:13:40.459Z,7.00
2023-05-16T10:16:13.839Z,9.90
2023-05-16T10:18:42.660Z,7.57
2023-05-16T10:21:16.858Z,7.23
2023-05-16T10:23:50.080Z,6.73
2023-05-16T10:26:19.430Z,6.87
2023-05-16T10:28:48.239Z,6.73
2023-05-16T10:31:16.684Z,6.90
2023-05-16T10:33:43.983Z,5.93
2023-05-16T10:36:12.397Z,7.30
2023-05-16T10:38:41.265Z,6.10
2023-05-16T10:41:09.874Z,6.60
2023-05-16T10:43:37.061Z,6.23
2023-05-16T10:46:11.982Z,6.63
2023-05-16T10:48:42.180Z,6.30
2023-05-16T10:51:23.940Z,8.00
2023-05-16T10:53:55.730Z,8.70
2023-05-16T10:56:26.361Z,5.97
2023-05-16T10:58:56.752Z,7.17
2023-05-16T11:01:34.180Z,6.80
2023-05-16T11:04:10.053Z,6.27
2023-05-16T11:06:42.891Z,8.70
2023-05-16T11:09:16.008Z,6.93
2023-05-16T11:11:52.367Z,7.00
2023-05-16T11:14:34.941Z,7.63
2023-05-16T11:17:22.000Z,7.83
2023-05-16T11:20:00.939Z,11.33
2023-05-16T11:22:34.180Z,7.30
2023-05-16T11:25:09.057Z,10.20
2023-05-16T11:27:43.644Z,6.90
2023-05-16T11:30:10.433Z,6.83
2023-05-16T11:32:41.983Z,6.33
2023-05-16T11:35:17.121Z,9.03
2023-05-16T11:37:46.872Z,6.23
2023-05-16T11:40:15.519Z,5.27
2023-05-16T11:42:47.479Z,5.57
2023-05-16T11:45:24.485Z,8.30
2023-05-16T11:47:52.279Z,5.47
2023-05-16T11:50:26.376Z,6.40
2023-05-16T11:52:57.038Z,6.73
2023-05-16T11:55:41.351Z,5.83
2023-05-16T11:58:10.194Z,6.57
2023-05-16T12:00:47.215Z,6.60
2023-05-16T12:03:14.239Z,5.77
2023-05-16T12:05:56.773Z,6.90
2023-05-16T12:08:26.941Z,6.07
2023-05-16T12:10:54.427Z,6.73
2023-05-16T12:13:25.094Z,6.90
2023-05-16T12:15:54.993Z,6.30
2023-05-16T12:18:24.333Z,6.30
2023-05-16T12:20:52.203Z,8.17
2023-05-16T12:23:19.223Z,6.77
2023-05-16T12:25:49.119Z,5.83
2023-05-16T12:28:16.696Z,7.27
2023-05-16T12:30:47.799Z,6.97
2023-05-16T12:33:17.090Z,8.77
2023-05-16T12:35:47.599Z,7.40
2023-05-16T12:38:17.282Z,6.17
2023-05-16T12:40:47.123Z,6.37
2023-05-16T12:43:21.370Z,6.07
2023-05-16T12:45:57.649Z,6.20
2023-05-16T12:48:36.654Z,6.37
2023-05-16T12:51:18.591Z,5.90
2023-05-16T12:53:57.774Z,8.53
2023-05-16T12:56:33.005Z,9.57
2023-05-16T12:58:59.934Z,5.77
2023-05-16T13:01:26.871Z,6.77
2023-05-16T13:03:53.968Z,5.10
2023-05-16T13:06:21.338Z,5.27
2023-05-16T13:08:48.268Z,4.80
2023-05-16T13:11:15.330Z,4.87
2023-05-16T13:13:42.238Z,5.10
2023-05-16T13:16:10.194Z,6.40
2023-05-16T13:18:37.483Z,5.33
2023-05-16T13:21:04.612Z,5.63
2023-05-16T13:23:32.829Z,5.37
2023-05-16T13:25:59.761Z,4.97
2023-05-16T13:28:26.766Z,7.20
2023-05-16T13:30:53.703Z,7.00
2023-05-16T13:33:20.850Z,10.43
2023-05-16T13:35:47.994Z,6.70
2023-05-16T13:38:16.392Z,5.20
2023-05-16T13:40:43.298Z,5.80
2023-05-16T13:43:10.384Z,4.97
2023-05-16T13:45:37.517Z,4.53
2023-05-16T13:48:05.349Z,5.13
2023-05-16T13:50:34.054Z,4.50
2023-05-16T13:53:01.364Z,5.10
2023-05-16T13:55:28.964Z,4.87
2023-05-16T13:57:56.165Z,5.10
2023-05-16T14:02:53.497Z,5.77
2023-05-16T14:05:20.684Z,5.30
2023-05-16T14:07:47.609Z,6.87
2023-05-16T14:10:14.590Z,5.80
2023-05-16T14:12:42.133Z,4.97
2023-05-16T14:15:09.752Z,5.50
2023-05-16T14:17:36.902Z,5.17
2023-05-16T14:20:09.380Z,5.77
2023-05-16T14:22:37.696Z,5.37
2023-05-16T14:25:06.256Z,9.57
2023-05-16T14:27:33.294Z,5.67
2023-05-16T14:30:00.341Z,4.90
2023-05-16T14:32:27.433Z,9.60
2023-05-16T14:34:54.520Z,5.27
2023-05-16T14:37:21.801Z,6.77
2023-05-16T14:39:50.498Z,4.67
2023-05-16T14:42:18.097Z,4.73
2023-05-16T14:44:45.204Z,4.83
2023-05-16T14:47:14.489Z,10.60
2023-05-16T14:49:42.025Z,4.83
2023-05-16T14:52:09.031Z,4.47
2023-05-16T14:54:36.813Z,6.60
2023-05-16T14:57:04.715Z,4.20
2023-05-16T14:59:31.662Z,4.73
2023-05-16T15:01:59.285Z,4.17
2023-05-16T15:04:28.637Z,4.13
2023-05-16T15:06:55.865Z,4.77
2023-05-16T15:09:22.779Z,4.23
2023-05-16T15:11:52.202Z,4.07
2023-05-16T15:14:19.209Z,4.13
2023-05-16T15:16:47.389Z,3.43
2023-05-16T15:19:14.495Z,4.00
2023-05-16T15:21:41.701Z,5.03
2023-05-16T15:24:08.867Z,3.90
2023-05-16T15:26:36.016Z,8.00
2023-05-16T15:29:02.919Z,4.13
2023-05-16T15:31:32.001Z,3.83
2023-05-16T15:33:58.931Z,7.23
2023-05-16T15:36:26.101Z,4.33
2023-05-16T15:38:53.163Z,4.20
2023-05-16T15:41:37.251Z,3.33
2023-05-16T15:44:08.684Z,3.83
2023-05-16T15:46:35.749Z,3.67
2023-05-16T15:49:02.981Z,3.80
2023-05-16T15:51:29.912Z,3.40
2023-05-16T15:53:56.955Z,3.93
2023-05-16T15:56:23.912Z,4.27
2023-05-16T15:58:50.812Z,36.67
2023-05-16T16:01:17.802Z,3.63
2023-05-16T16:03:44.964Z,3.60
2023-05-16T16:06:12.027Z,3.50
2023-05-16T16:08:39.200Z,3.07
2023-05-16T16:11:06.323Z,3.87
2023-05-16T16:13:33.339Z,4.57
2023-05-16T16:16:00.254Z,3.03
2023-05-16T16:18:27.232Z,3.37
2023-05-16T16:20:54.540Z,2.83
2023-05-16T16:23:21.755Z,3.33
2023-05-16T16:25:48.819Z,3.37
2023-05-16T16:28:15.755Z,4.17
2023-05-16T16:30:44.803Z,5.73
2023-05-16T16:33:11.818Z,4.43
2023-05-16T16:35:39.138Z,3.40
2023-05-16T16:38:07.352Z,3.50
2023-05-16T16:40:35.485Z,3.83
2023-05-16T16:43:02.584Z,4.63
2023-05-16T16:45:29.787Z,3.93
2023-05-16T16:47:57.983Z,4.00
2023-05-16T16:50:25.297Z,3.67
2023-05-16T16:52:53.731Z,4.10
2023-05-16T16:55:21.116Z,8.00
2023-05-16T16:57:48.087Z,4.13
2023-05-16T17:00:16.428Z,3.40
2023-05-16T17:02:43.652Z,3.53
2023-05-16T17:05:11.086Z,4.53
2023-05-16T17:07:38.204Z,5.43
2023-05-16T17:10:07.778Z,4.23
2023-05-16T17:12:35.923Z,3.90
2023-05-16T17:15:03.320Z,4.63
2023-05-16T17:17:30.378Z,3.63
2023-05-16T17:19:57.542Z,3.87
2023-05-16T17:22:24.467Z,3.17
2023-05-16T17:24:51.560Z,5.20
2023-05-16T17:27:18.546Z,3.37
2023-05-16T17:29:45.599Z,7.87
2023-05-16T17:32:12.604Z,3.93
2023-05-16T17:34:39.538Z,3.00
2023-05-16T17:37:07.207Z,3.47
2023-05-16T17:39:34.242Z,4.87
2023-05-16T17:42:01.653Z,4.00
2023-05-16T17:44:28.910Z,4.30
2023-05-16T17:46:56.474Z,3.90
2023-05-16T17:49:23.826Z,2.90
2023-05-16T17:52:00.090Z,5.50
2023-05-16T17:54:30.835Z,3.43
2023-05-16T17:56:58.457Z,2.60
2023-05-16T17:59:27.295Z,4.07
2023-05-16T18:01:56.152Z,2.60
2023-05-16T18:04:23.674Z,2.63
2023-05-16T18:06:54.219Z,2.53
2023-05-16T18:09:21.882Z,2.77
2023-05-16T18:11:48.971Z,4.30
2023-05-16T18:14:17.007Z,3.30
2023-05-16T18:16:44.476Z,2.50
2023-05-16T18:19:11.534Z,2.43
2023-05-16T18:21:40.064Z,3.67
2023-05-16T18:24:12.797Z,4.67
2023-05-16T18:26:39.974Z,3.00
2023-05-16T18:29:06.970Z,3.87
2023-05-16T18:31:34.001Z,2.67
2023-05-16T18:34:03.841Z,4.53
2023-05-16T18:36:31.539Z,3.80
2023-05-16T18:38:58.475Z,5.53
2023-05-16T18:41:26.055Z,2.73
2023-05-16T18:43:53.161Z,5.80
2023-05-16T18:46:20.501Z,3.83
2023-05-16T18:48:47.431Z,4.33
2023-05-16T18:51:14.399Z,4.70
2023-05-16T18:53:41.288Z,5.60
2023-05-16T18:56:08.265Z,3.33
2023-05-16T18:58:35.246Z,4.77
2023-05-16T19:01:02.760Z,3.20
2023-05-16T19:03:29.895Z,9.20
2023-05-16T19:05:57.293Z,3.80
2023-05-16T19:08:27.074Z,6.97
2023-05-16T19:10:56.464Z,7.83
2023-05-16T19:13:23.433Z,5.63
2023-05-16T19:15:50.369Z,5.60
2023-05-16T19:18:17.926Z,7.67
2023-05-16T19:20:45.684Z,7.47
2023-05-16T19:23:12.815Z,6.47
2023-05-16T19:25:45.577Z,4.73
2023-05-16T19:28:13.629Z,6.03
2023-05-16T19:30:40.757Z,7.90
2023-05-16T19:33:08.160Z,5.20
2023-05-16T19:35:39.742Z,3.20
2023-05-16T19:38:10.509Z,6.03
2023-05-16T19:40:37.599Z,3.70
2023-05-16T19:43:04.519Z,5.13
2023-05-16T19:45:31.467Z,6.60
2023-05-16T19:47:58.777Z,5.30
2023-05-16T19:50:26.189Z,8.90
2023-05-16T19:52:53.157Z,5.10
2023-05-16T19:55:20.112Z,10.10
2023-05-16T19:57:46.989Z,7.90
2023-05-16T20:00:14.907Z,4.37
2023-05-16T20:02:43.062Z,10.83
2023-05-16T20:05:10.973Z,7.70
2023-05-16T20:07:40.175Z,8.77
2023-05-16T20:10:09.275Z,7.60
2023-05-16T20:12:36.903Z,12.47
2023-05-16T20:15:08.098Z,7.30
2023-05-16T20:17:35.675Z,13.17
2023-05-16T20:20:04.077Z,6.63
2023-05-16T20:22:31.264Z,10.97
2023-05-16T20:24:59.057Z,7.37
2023-05-16T20:27:25.970Z,7.03
2023-05-16T20:29:54.122Z,10.30
2023-05-16T20:32:21.277Z,14.03
2023-05-16T20:34:48.452Z,7.80
2023-05-16T20:37:15.552Z,4.10
2023-05-16T20:39:42.566Z,8.30
2023-05-16T20:42:10.931Z,5.50
2023-05-16T20:44:39.412Z,2.93
2023-05-16T20:47:07.630Z,4.70
2023-05-16T20:49:39.318Z,4.30
2023-05-16T20:52:06.998Z,5.13
2023-05-16T20:54:34.288Z,4.37
2023-05-16T20:57:01.406Z,3.77
2023-05-16T20:59:28.353Z,8.03
2023-05-16T21:01:57.251Z,4.67
2023-05-16T21:04:24.490Z,4.67
2023-05-16T21:06:51.711Z,6.90
2023-05-16T21:09:18.737Z,4.17
2023-05-16T21:11:45.637Z,12.90
2023-05-16T21:14:12.776Z,2.87
2023-05-16T21:16:39.681Z,5.20
2023-05-16T21:19:06.641Z,8.67
2023-05-16T21:21:33.761Z,8.80
2023-05-16T21:24:00.807Z,6.10
2023-05-16T21:26:27.707Z,4.77
2023-05-16T21:28:55.892Z,6.23
2023-05-16T21:31:23.524Z,9.90
2023-05-16T21:33:53.323Z,3.97
2023-05-16T21:36:21.420Z,5.33
2023-05-16T21:38:48.663Z,7.20
2023-05-16T21:41:17.881Z,7.80
2023-05-16T21:43:44.913Z,3.73
2023-05-16T21:46:12.062Z,8.43
2023-05-16T21:48:39.230Z,3.33
2023-05-16T21:51:06.276Z,9.00
2023-05-16T21:53:34.282Z,6.37
2023-05-16T21:56:01.224Z,3.57
2023-05-16T21:58:28.260Z,3.97
2023-05-16T22:00:55.574Z,7.10
2023-05-16T22:03:22.838Z,6.10
2023-05-16T22:05:49.849Z,6.27
2023-05-16T22:08:16.793Z,4.30
2023-05-16T22:10:43.707Z,6.37
2023-05-16T22:13:10.874Z,5.40
2023-05-16T22:15:38.016Z,6.50
2023-05-16T22:18:05.741Z,9.77
2023-05-16T22:20:32.808Z,8.60
2023-05-16T22:22:59.795Z,11.10
2023-05-16T22:25:26.967Z,6.80
2023-05-16T22:27:54.120Z,4.67
2023-05-16T22:30:20.994Z,3.43
2023-05-16T22:32:48.123Z,4.60
2023-05-16T22:35:15.661Z,10.87
2023-05-16T22:37:42.542Z,5.47
2023-05-16T22:40:10.478Z,5.10
2023-05-16T22:42:37.385Z,7.77
2023-05-16T22:45:05.062Z,5.20
2023-05-16T22:47:32.076Z,5.33
2023-05-16T22:49:58.999Z,8.63
2023-05-16T22:52:26.078Z,5.27
2023-05-16T22:54:52.981Z,10.07
2023-05-16T22:57:19.931Z,7.33
2023-05-16T22:59:46.966Z,3.80
2023-05-16T23:02:13.843Z,4.33
2023-05-16T23:04:41.001Z,6.90
2023-05-16T23:07:07.973Z,6.97
2023-05-16T23:09:35.220Z,5.17
2023-05-16T23:12:02.150Z,3.80
2023-05-16T23:14:29.053Z,8.53
2023-05-16T23:16:55.955Z,5.00
2023-05-16T23:19:23.011Z,5.23
2023-05-16T23:21:50.057Z,6.03
2023-05-16T23:24:17.046Z,5.30
2023-05-16T23:26:44.054Z,3.10
2023-05-16T23:29:10.983Z,4.80
2023-05-16T23:31:37.961Z,4.93
2023-05-16T23:34:05.114Z,5.23
2023-05-16T23:36:32.238Z,7.23
2023-05-16T23:38:59.167Z,2.57
2023-05-16T23:41:26.070Z,6.80
2023-05-16T23:43:53.084Z,2.50
2023-05-16T23:46:19.967Z,7.73
2023-05-16T23:48:46.931Z,7.63
2023-05-16T23:51:13.893Z,4.57
2023-05-16T23:53:40.788Z,3.60
2023-05-16T23:56:07.959Z,5.63
2023-05-16T23:58:34.853Z,2.13
